sensor_id;sensor_type;location;lat;lon;timestamp;temperature;humidity
60848;DHT22;46681;47.696;9.140;2023-07-29T00:00:29;19.90;64.40
60848;DHT22;46681;47.696;9.140;2023-07-29T00:02:54;19.80;64.60
60848;DHT22;46681;47.696;9.140;2023-07-29T00:05:20;19.90;64.60
60848;DHT22;46681;47.696;9.140;2023-07-29T00:07:45;19.80;64.70
60848;DHT22;46681;47.696;9.140;2023-07-29T00:10:11;19.80;64.70
60848;DHT22;46681;47.696;9.140;2023-07-29T00:12:36;19.80;64.60
60848;DHT22;46681;47.696;9.140;2023-07-29T00:15:02;19.80;64.60
60848;DHT22;46681;47.696;9.140;2023-07-29T00:17:27;19.90;64.60
60848;DHT22;46681;47.696;9.140;2023-07-29T00:19:55;19.80;64.60
60848;DHT22;46681;47.696;9.140;2023-07-29T00:22:20;19.80;64.50
60848;DHT22;46681;47.696;9.140;2023-07-29T00:24:56;19.80;64.60
60848;DHT22;46681;47.696;9.140;2023-07-29T00:27:24;19.80;64.60
60848;DHT22;46681;47.696;9.140;2023-07-29T00:29:50;19.80;64.50
60848;DHT22;46681;47.696;9.140;2023-07-29T00:32:17;19.80;64.70
60848;DHT22;46681;47.696;9.140;2023-07-29T00:34:46;19.80;64.60
60848;DHT22;46681;47.696;9.140;2023-07-29T00:37:12;19.80;64.60
60848;DHT22;46681;47.696;9.140;2023-07-29T00:39:37;19.80;64.80
60848;DHT22;46681;47.696;9.140;2023-07-29T00:42:04;19.80;64.70
60848;DHT22;46681;47.696;9.140;2023-07-29T00:44:29;19.80;64.50
60848;DHT22;46681;47.696;9.140;2023-07-29T00:46:55;19.80;64.50
60848;DHT22;46681;47.696;9.140;2023-07-29T00:49:26;19.80;64.60
60848;DHT22;46681;47.696;9.140;2023-07-29T00:51:52;19.80;64.50
60848;DHT22;46681;47.696;9.140;2023-07-29T00:54:17;19.80;64.60
60848;DHT22;46681;47.696;9.140;2023-07-29T00:56:43;19.80;64.60
60848;DHT22;46681;47.696;9.140;2023-07-29T00:59:11;19.80;64.60
60848;DHT22;46681;47.696;9.140;2023-07-29T01:01:37;19.80;64.50
60848;DHT22;46681;47.696;9.140;2023-07-29T01:04:04;19.70;64.50
60848;DHT22;46681;47.696;9.140;2023-07-29T01:06:53;19.70;64.40
60848;DHT22;46681;47.696;9.140;2023-07-29T01:09:39;19.70;64.50
60848;DHT22;46681;47.696;9.140;2023-07-29T01:12:18;19.70;64.50
60848;DHT22;46681;47.696;9.140;2023-07-29T01:17:24;19.70;64.50
60848;DHT22;46681;47.696;9.140;2023-07-29T01:20:07;19.70;64.70
60848;DHT22;46681;47.696;9.140;2023-07-29T01:22:37;19.70;64.70
60848;DHT22;46681;47.696;9.140;2023-07-29T01:25:03;19.70;64.60
60848;DHT22;46681;47.696;9.140;2023-07-29T01:27:29;19.70;64.60
60848;DHT22;46681;47.696;9.140;2023-07-29T01:29:55;19.70;64.60
60848;DHT22;46681;47.696;9.140;2023-07-29T01:38:09;19.60;64.60
60848;DHT22;46681;47.696;9.140;2023-07-29T01:40:39;19.60;64.60
60848;DHT22;46681;47.696;9.140;2023-07-29T01:43:06;19.60;64.70
60848;DHT22;46681;47.696;9.140;2023-07-29T01:45:32;19.60;64.70
60848;DHT22;46681;47.696;9.140;2023-07-29T01:48:01;19.50;64.50
60848;DHT22;46681;47.696;9.140;2023-07-29T01:50:26;19.50;64.50
60848;DHT22;46681;47.696;9.140;2023-07-29T01:52:54;19.60;64.70
60848;DHT22;46681;47.696;9.140;2023-07-29T01:55:19;19.50;64.70
60848;DHT22;46681;47.696;9.140;2023-07-29T01:57:44;19.60;64.60
60848;DHT22;46681;47.696;9.140;2023-07-29T02:00:15;19.60;64.70
60848;DHT22;46681;47.696;9.140;2023-07-29T02:02:41;19.50;64.70
60848;DHT22;46681;47.696;9.140;2023-07-29T02:05:07;19.50;64.70
60848;DHT22;46681;47.696;9.140;2023-07-29T02:07:35;19.50;64.70
60848;DHT22;46681;47.696;9.140;2023-07-29T02:10:01;19.50;64.70
60848;DHT22;46681;47.696;9.140;2023-07-29T02:12:27;19.50;64.80
60848;DHT22;46681;47.696;9.140;2023-07-29T02:14:53;19.50;64.70
60848;DHT22;46681;47.696;9.140;2023-07-29T02:17:18;19.50;64.80
60848;DHT22;46681;47.696;9.140;2023-07-29T02:19:44;19.50;64.80
60848;DHT22;46681;47.696;9.140;2023-07-29T02:22:13;19.50;64.80
60848;DHT22;46681;47.696;9.140;2023-07-29T02:24:38;19.50;64.80
60848;DHT22;46681;47.696;9.140;2023-07-29T02:27:04;19.40;64.70
60848;DHT22;46681;47.696;9.140;2023-07-29T02:29:29;19.40;64.60
60848;DHT22;46681;47.696;9.140;2023-07-29T02:31:55;19.40;64.70
60848;DHT22;46681;47.696;9.140;2023-07-29T02:34:20;19.40;64.80
60848;DHT22;46681;47.696;9.140;2023-07-29T02:36:48;19.40;64.70
60848;DHT22;46681;47.696;9.140;2023-07-29T02:39:16;19.40;64.70
60848;DHT22;46681;47.696;9.140;2023-07-29T02:41:42;19.40;64.80
60848;DHT22;46681;47.696;9.140;2023-07-29T02:44:11;19.40;64.80
60848;DHT22;46681;47.696;9.140;2023-07-29T02:46:37;19.40;64.80
60848;DHT22;46681;47.696;9.140;2023-07-29T02:49:03;19.40;64.80
60848;DHT22;46681;47.696;9.140;2023-07-29T02:51:28;19.40;64.80
60848;DHT22;46681;47.696;9.140;2023-07-29T02:53:54;19.40;64.90
60848;DHT22;46681;47.696;9.140;2023-07-29T02:56:19;19.40;64.90
60848;DHT22;46681;47.696;9.140;2023-07-29T02:58:45;19.40;64.90
60848;DHT22;46681;47.696;9.140;2023-07-29T03:01:11;19.40;65.00
60848;DHT22;46681;47.696;9.140;2023-07-29T03:03:36;19.40;65.10
60848;DHT22;46681;47.696;9.140;2023-07-29T03:06:03;19.40;65.10
60848;DHT22;46681;47.696;9.140;2023-07-29T03:08:29;19.40;65.60
60848;DHT22;46681;47.696;9.140;2023-07-29T03:10:56;19.40;65.70
60848;DHT22;46681;47.696;9.140;2023-07-29T03:13:23;19.40;65.10
60848;DHT22;46681;47.696;9.140;2023-07-29T03:15:52;19.40;65.10
60848;DHT22;46681;47.696;9.140;2023-07-29T03:18:17;19.40;65.20
60848;DHT22;46681;47.696;9.140;2023-07-29T03:20:43;19.40;65.10
60848;DHT22;46681;47.696;9.140;2023-07-29T03:23:08;19.40;65.20
60848;DHT22;46681;47.696;9.140;2023-07-29T03:25:34;19.40;65.20
60848;DHT22;46681;47.696;9.140;2023-07-29T03:28:02;19.40;65.10
60848;DHT22;46681;47.696;9.140;2023-07-29T03:30:27;19.40;65.10
60848;DHT22;46681;47.696;9.140;2023-07-29T03:32:53;19.40;65.10
60848;DHT22;46681;47.696;9.140;2023-07-29T03:35:18;19.30;65.10
60848;DHT22;46681;47.696;9.140;2023-07-29T03:37:46;19.30;65.10
60848;DHT22;46681;47.696;9.140;2023-07-29T03:40:11;19.30;65.20
60848;DHT22;46681;47.696;9.140;2023-07-29T03:42:37;19.30;65.20
60848;DHT22;46681;47.696;9.140;2023-07-29T03:45:03;19.40;65.20
60848;DHT22;46681;47.696;9.140;2023-07-29T03:47:28;19.40;65.20
60848;DHT22;46681;47.696;9.140;2023-07-29T03:49:54;19.40;65.30
60848;DHT22;46681;47.696;9.140;2023-07-29T03:52:19;19.30;65.10
60848;DHT22;46681;47.696;9.140;2023-07-29T03:54:45;19.30;65.20
60848;DHT22;46681;47.696;9.140;2023-07-29T03:57:11;19.30;65.20
60848;DHT22;46681;47.696;9.140;2023-07-29T03:59:37;19.30;65.10
60848;DHT22;46681;47.696;9.140;2023-07-29T04:02:05;19.30;65.20
60848;DHT22;46681;47.696;9.140;2023-07-29T04:04:31;19.30;65.20
60848;DHT22;46681;47.696;9.140;2023-07-29T04:06:56;19.40;65.20
60848;DHT22;46681;47.696;9.140;2023-07-29T04:09:22;19.30;65.10
60848;DHT22;46681;47.696;9.140;2023-07-29T04:11:47;19.30;65.10
60848;DHT22;46681;47.696;9.140;2023-07-29T04:14:13;19.30;65.20
60848;DHT22;46681;47.696;9.140;2023-07-29T04:16:39;19.30;65.10
60848;DHT22;46681;47.696;9.140;2023-07-29T04:19:04;19.30;65.20
60848;DHT22;46681;47.696;9.140;2023-07-29T04:21:30;19.30;65.20
60848;DHT22;46681;47.696;9.140;2023-07-29T04:23:55;19.30;65.20
60848;DHT22;46681;47.696;9.140;2023-07-29T04:26:21;19.40;65.20
60848;DHT22;46681;47.696;9.140;2023-07-29T04:28:46;19.40;65.00
60848;DHT22;46681;47.696;9.140;2023-07-29T04:31:12;19.40;65.10
60848;DHT22;46681;47.696;9.140;2023-07-29T04:33:37;19.40;65.10
60848;DHT22;46681;47.696;9.140;2023-07-29T04:36:03;19.40;65.10
60848;DHT22;46681;47.696;9.140;2023-07-29T04:38:31;19.40;65.40
60848;DHT22;46681;47.696;9.140;2023-07-29T04:41:01;19.40;65.20
60848;DHT22;46681;47.696;9.140;2023-07-29T04:43:33;19.40;65.20
60848;DHT22;46681;47.696;9.140;2023-07-29T04:46:03;19.40;65.20
60848;DHT22;46681;47.696;9.140;2023-07-29T04:48:31;19.40;65.20
60848;DHT22;46681;47.696;9.140;2023-07-29T04:50:56;19.40;64.90
60848;DHT22;46681;47.696;9.140;2023-07-29T04:53:22;19.40;65.10
60848;DHT22;46681;47.696;9.140;2023-07-29T04:55:47;19.40;65.10
60848;DHT22;46681;47.696;9.140;2023-07-29T04:58:13;19.50;65.60
60848;DHT22;46681;47.696;9.140;2023-07-29T05:00:38;19.50;65.00
60848;DHT22;46681;47.696;9.140;2023-07-29T05:03:04;19.50;65.10
60848;DHT22;46681;47.696;9.140;2023-07-29T05:05:29;19.50;65.10
60848;DHT22;46681;47.696;9.140;2023-07-29T05:07:55;19.50;65.00
60848;DHT22;46681;47.696;9.140;2023-07-29T05:10:20;19.50;65.00
60848;DHT22;46681;47.696;9.140;2023-07-29T05:12:46;19.50;65.00
60848;DHT22;46681;47.696;9.140;2023-07-29T05:15:15;19.50;65.00
60848;DHT22;46681;47.696;9.140;2023-07-29T05:17:40;19.50;65.00
60848;DHT22;46681;47.696;9.140;2023-07-29T05:20:07;19.50;65.00
60848;DHT22;46681;47.696;9.140;2023-07-29T05:22:32;19.50;64.90
60848;DHT22;46681;47.696;9.140;2023-07-29T05:25:04;19.50;64.80
60848;DHT22;46681;47.696;9.140;2023-07-29T05:27:30;19.60;65.00
60848;DHT22;46681;47.696;9.140;2023-07-29T05:29:55;19.60;64.80
60848;DHT22;46681;47.696;9.140;2023-07-29T05:32:27;19.60;64.90
60848;DHT22;46681;47.696;9.140;2023-07-29T05:34:53;19.60;64.80
60848;DHT22;46681;47.696;9.140;2023-07-29T05:37:24;19.60;64.70
60848;DHT22;46681;47.696;9.140;2023-07-29T05:39:50;19.70;64.80
60848;DHT22;46681;47.696;9.140;2023-07-29T05:42:15;19.70;64.90
60848;DHT22;46681;47.696;9.140;2023-07-29T05:44:41;19.70;64.80
60848;DHT22;46681;47.696;9.140;2023-07-29T05:47:06;19.70;64.90
60848;DHT22;46681;47.696;9.140;2023-07-29T05:49:37;19.70;64.80
60848;DHT22;46681;47.696;9.140;2023-07-29T05:52:04;19.80;64.70
60848;DHT22;46681;47.696;9.140;2023-07-29T05:54:29;19.80;64.70
60848;DHT22;46681;47.696;9.140;2023-07-29T05:56:56;19.80;64.70
60848;DHT22;46681;47.696;9.140;2023-07-29T05:59:22;19.80;64.60
60848;DHT22;46681;47.696;9.140;2023-07-29T06:01:47;19.80;64.70
60848;DHT22;46681;47.696;9.140;2023-07-29T06:04:13;19.80;64.60
60848;DHT22;46681;47.696;9.140;2023-07-29T06:06:38;19.80;64.60
60848;DHT22;46681;47.696;9.140;2023-07-29T06:09:06;19.80;65.10
60848;DHT22;46681;47.696;9.140;2023-07-29T06:11:33;19.90;64.60
60848;DHT22;46681;47.696;9.140;2023-07-29T06:14:06;19.90;64.50
60848;DHT22;46681;47.696;9.140;2023-07-29T06:16:31;19.90;64.60
60848;DHT22;46681;47.696;9.140;2023-07-29T06:19:04;19.90;64.50
60848;DHT22;46681;47.696;9.140;2023-07-29T06:21:33;20.00;64.60
60848;DHT22;46681;47.696;9.140;2023-07-29T06:24:03;20.10;64.60
60848;DHT22;46681;47.696;9.140;2023-07-29T06:26:28;20.10;64.30
60848;DHT22;46681;47.696;9.140;2023-07-29T06:28:55;20.10;64.30
60848;DHT22;46681;47.696;9.140;2023-07-29T06:31:21;20.20;66.60
60848;DHT22;46681;47.696;9.140;2023-07-29T06:33:50;20.10;67.60
60848;DHT22;46681;47.696;9.140;2023-07-29T06:36:15;20.20;66.90
60848;DHT22;46681;47.696;9.140;2023-07-29T06:38:44;20.20;65.60
60848;DHT22;46681;47.696;9.140;2023-07-29T06:41:11;20.20;65.40
60848;DHT22;46681;47.696;9.140;2023-07-29T06:43:38;20.30;64.80
60848;DHT22;46681;47.696;9.140;2023-07-29T06:46:05;20.30;64.30
60848;DHT22;46681;47.696;9.140;2023-07-29T06:48:33;20.40;64.00
60848;DHT22;46681;47.696;9.140;2023-07-29T06:51:01;20.40;64.10
60848;DHT22;46681;47.696;9.140;2023-07-29T06:53:31;20.50;64.00
60848;DHT22;46681;47.696;9.140;2023-07-29T06:55:58;20.50;63.60
60848;DHT22;46681;47.696;9.140;2023-07-29T06:58:24;20.50;63.60
60848;DHT22;46681;47.696;9.140;2023-07-29T07:00:50;20.60;64.10
60848;DHT22;46681;47.696;9.140;2023-07-29T07:03:19;20.70;64.20
60848;DHT22;46681;47.696;9.140;2023-07-29T07:05:45;20.70;63.70
60848;DHT22;46681;47.696;9.140;2023-07-29T07:08:15;20.80;63.40
60848;DHT22;46681;47.696;9.140;2023-07-29T07:10:51;20.90;63.10
60848;DHT22;46681;47.696;9.140;2023-07-29T07:13:21;21.00;62.60
60848;DHT22;46681;47.696;9.140;2023-07-29T07:15:53;21.10;62.40
60848;DHT22;46681;47.696;9.140;2023-07-29T07:18:23;21.20;62.00
60848;DHT22;46681;47.696;9.140;2023-07-29T07:20:49;21.20;62.10
60848;DHT22;46681;47.696;9.140;2023-07-29T07:23:17;21.20;61.70
60848;DHT22;46681;47.696;9.140;2023-07-29T07:25:47;21.30;61.40
60848;DHT22;46681;47.696;9.140;2023-07-29T07:28:17;21.30;61.40
60848;DHT22;46681;47.696;9.140;2023-07-29T07:30:43;21.40;61.30
60848;DHT22;46681;47.696;9.140;2023-07-29T07:33:14;21.40;61.10
60848;DHT22;46681;47.696;9.140;2023-07-29T07:35:44;21.50;61.00
60848;DHT22;46681;47.696;9.140;2023-07-29T07:38:11;21.50;60.80
60848;DHT22;46681;47.696;9.140;2023-07-29T07:40:38;21.60;60.40
60848;DHT22;46681;47.696;9.140;2023-07-29T07:43:05;21.70;60.20
60848;DHT22;46681;47.696;9.140;2023-07-29T07:45:32;21.80;60.00
60848;DHT22;46681;47.696;9.140;2023-07-29T07:47:58;21.90;59.60
60848;DHT22;46681;47.696;9.140;2023-07-29T07:50:28;22.00;59.60
60848;DHT22;46681;47.696;9.140;2023-07-29T07:53:05;22.10;59.40
60848;DHT22;46681;47.696;9.140;2023-07-29T07:55:33;22.20;59.10
60848;DHT22;46681;47.696;9.140;2023-07-29T07:58:04;22.30;59.10
60848;DHT22;46681;47.696;9.140;2023-07-29T08:04:07;22.50;58.80
60848;DHT22;46681;47.696;9.140;2023-07-29T08:10:19;22.80;58.90
60848;DHT22;46681;47.696;9.140;2023-07-29T08:13:10;22.90;58.70
60848;DHT22;46681;47.696;9.140;2023-07-29T08:16:00;23.10;58.80
60848;DHT22;46681;47.696;9.140;2023-07-29T08:18:35;23.20;58.60
60848;DHT22;46681;47.696;9.140;2023-07-29T08:27:16;23.50;57.80
60848;DHT22;46681;47.696;9.140;2023-07-29T08:30:10;23.60;57.50
60848;DHT22;46681;47.696;9.140;2023-07-29T08:32:41;23.70;57.40
60848;DHT22;46681;47.696;9.140;2023-07-29T08:35:40;23.80;57.20
60848;DHT22;46681;47.696;9.140;2023-07-29T08:38:11;23.90;57.10
60848;DHT22;46681;47.696;9.140;2023-07-29T08:43:50;24.00;56.70
60848;DHT22;46681;47.696;9.140;2023-07-29T08:47:02;24.10;56.40
60848;DHT22;46681;47.696;9.140;2023-07-29T09:02:12;24.40;55.80
60848;DHT22;46681;47.696;9.140;2023-07-29T09:08:27;24.60;55.60
60848;DHT22;46681;47.696;9.140;2023-07-29T09:17:10;24.90;55.00
60848;DHT22;46681;47.696;9.140;2023-07-29T09:19:36;25.00;54.80
60848;DHT22;46681;47.696;9.140;2023-07-29T09:22:26;25.10;54.70
60848;DHT22;46681;47.696;9.140;2023-07-29T09:28:43;25.30;54.70
60848;DHT22;46681;47.696;9.140;2023-07-29T09:34:32;25.50;54.20
60848;DHT22;46681;47.696;9.140;2023-07-29T09:37:53;25.60;54.10
60848;DHT22;46681;47.696;9.140;2023-07-29T09:40:57;25.70;54.20
60848;DHT22;46681;47.696;9.140;2023-07-29T09:50:11;26.10;53.70
60848;DHT22;46681;47.696;9.140;2023-07-29T09:52:50;26.30;53.50
60848;DHT22;46681;47.696;9.140;2023-07-29T10:05:01;26.70;52.70
60848;DHT22;46681;47.696;9.140;2023-07-29T10:08:07;26.90;52.50
60848;DHT22;46681;47.696;9.140;2023-07-29T10:17:16;27.30;52.00
60848;DHT22;46681;47.696;9.140;2023-07-29T10:20:12;27.50;51.90
60848;DHT22;46681;47.696;9.140;2023-07-29T10:22:43;27.50;51.60
60848;DHT22;46681;47.696;9.140;2023-07-29T10:31:25;28.00;51.30
60848;DHT22;46681;47.696;9.140;2023-07-29T10:33:58;28.00;51.20
60848;DHT22;46681;47.696;9.140;2023-07-29T10:36:28;28.10;51.20
60848;DHT22;46681;47.696;9.140;2023-07-29T10:39:23;28.10;51.00
60848;DHT22;46681;47.696;9.140;2023-07-29T10:42:29;28.20;50.90
60848;DHT22;46681;47.696;9.140;2023-07-29T10:45:26;28.40;50.90
60848;DHT22;46681;47.696;9.140;2023-07-29T10:51:27;28.50;50.40
60848;DHT22;46681;47.696;9.140;2023-07-29T10:54:22;28.50;50.60
60848;DHT22;46681;47.696;9.140;2023-07-29T11:00:07;28.70;50.50
60848;DHT22;46681;47.696;9.140;2023-07-29T11:09:02;29.20;49.80
60848;DHT22;46681;47.696;9.140;2023-07-29T11:14:54;29.50;49.30
60848;DHT22;46681;47.696;9.140;2023-07-29T11:20:49;29.70;48.80
60848;DHT22;46681;47.696;9.140;2023-07-29T11:27:11;30.00;48.60
60848;DHT22;46681;47.696;9.140;2023-07-29T11:30:05;30.00;48.50
60848;DHT22;46681;47.696;9.140;2023-07-29T11:32:55;30.10;48.50
60848;DHT22;46681;47.696;9.140;2023-07-29T11:38:52;30.00;48.50
60848;DHT22;46681;47.696;9.140;2023-07-29T11:41:26;30.00;48.60
60848;DHT22;46681;47.696;9.140;2023-07-29T11:50:22;29.90;48.70
60848;DHT22;46681;47.696;9.140;2023-07-29T11:53:49;30.00;48.70
60848;DHT22;46681;47.696;9.140;2023-07-29T12:02:44;29.70;48.30
60848;DHT22;46681;47.696;9.140;2023-07-29T12:08:52;29.90;48.40
60848;DHT22;46681;47.696;9.140;2023-07-29T12:45:59;28.10;51.70
60848;DHT22;46681;47.696;9.140;2023-07-29T13:03:48;27.20;54.80
60848;DHT22;46681;47.696;9.140;2023-07-29T13:06:16;27.10;55.10
60848;DHT22;46681;47.696;9.140;2023-07-29T13:08:43;27.00;55.60
60848;DHT22;46681;47.696;9.140;2023-07-29T13:11:34;26.80;55.50
60848;DHT22;46681;47.696;9.140;2023-07-29T13:17:06;26.30;55.60
60848;DHT22;46681;47.696;9.140;2023-07-29T13:19:50;26.30;55.70
60848;DHT22;46681;47.696;9.140;2023-07-29T13:22:25;26.20;55.70
60848;DHT22;46681;47.696;9.140;2023-07-29T13:25:23;26.20;55.40
60848;DHT22;46681;47.696;9.140;2023-07-29T13:27:55;26.20;55.30
60848;DHT22;46681;47.696;9.140;2023-07-29T13:30:35;26.20;55.40
60848;DHT22;46681;47.696;9.140;2023-07-29T13:33:49;26.10;55.40
60848;DHT22;46681;47.696;9.140;2023-07-29T13:36:25;26.00;55.30
60848;DHT22;46681;47.696;9.140;2023-07-29T13:39:28;25.90;55.30
60848;DHT22;46681;47.696;9.140;2023-07-29T13:42:14;25.70;55.20
60848;DHT22;46681;47.696;9.140;2023-07-29T13:45:30;25.60;55.30
60848;DHT22;46681;47.696;9.140;2023-07-29T13:47:56;25.50;55.30
60848;DHT22;46681;47.696;9.140;2023-07-29T13:54:12;25.40;55.20
60848;DHT22;46681;47.696;9.140;2023-07-29T13:56:39;25.30;55.50
60848;DHT22;46681;47.696;9.140;2023-07-29T13:59:20;25.20;55.60
60848;DHT22;46681;47.696;9.140;2023-07-29T14:01:46;25.10;55.70
60848;DHT22;46681;47.696;9.140;2023-07-29T14:04:17;25.00;55.80
60848;DHT22;46681;47.696;9.140;2023-07-29T14:06:53;25.00;56.00
60848;DHT22;46681;47.696;9.140;2023-07-29T14:09:43;24.90;56.00
60848;DHT22;46681;47.696;9.140;2023-07-29T14:12:12;24.80;56.10
60848;DHT22;46681;47.696;9.140;2023-07-29T14:14:44;24.70;56.20
60848;DHT22;46681;47.696;9.140;2023-07-29T14:17:23;24.70;56.50
60848;DHT22;46681;47.696;9.140;2023-07-29T14:19:59;24.60;56.50
60848;DHT22;46681;47.696;9.140;2023-07-29T14:22:24;24.60;56.70
60848;DHT22;46681;47.696;9.140;2023-07-29T14:25:13;24.50;56.80
60848;DHT22;46681;47.696;9.140;2023-07-29T14:27:54;24.40;56.80
60848;DHT22;46681;47.696;9.140;2023-07-29T14:33:34;24.40;57.10
60848;DHT22;46681;47.696;9.140;2023-07-29T14:35:59;24.40;57.30
60848;DHT22;46681;47.696;9.140;2023-07-29T14:38:25;24.30;57.30
60848;DHT22;46681;47.696;9.140;2023-07-29T14:41:06;24.30;57.40
60848;DHT22;46681;47.696;9.140;2023-07-29T14:43:44;24.30;57.50
60848;DHT22;46681;47.696;9.140;2023-07-29T14:46:34;24.30;57.50
60848;DHT22;46681;47.696;9.140;2023-07-29T14:49:02;24.30;57.60
60848;DHT22;46681;47.696;9.140;2023-07-29T14:51:28;24.30;57.80
60848;DHT22;46681;47.696;9.140;2023-07-29T14:53:58;24.20;58.00
60848;DHT22;46681;47.696;9.140;2023-07-29T14:56:35;24.20;58.00
60848;DHT22;46681;47.696;9.140;2023-07-29T14:59:06;24.20;58.20
60848;DHT22;46681;47.696;9.140;2023-07-29T15:01:40;24.10;58.30
60848;DHT22;46681;47.696;9.140;2023-07-29T15:04:12;24.10;58.40
60848;DHT22;46681;47.696;9.140;2023-07-29T15:10:21;24.00;58.60
60848;DHT22;46681;47.696;9.140;2023-07-29T15:13:16;24.00;58.80
60848;DHT22;46681;47.696;9.140;2023-07-29T15:16:15;23.90;59.00
60848;DHT22;46681;47.696;9.140;2023-07-29T15:19:22;23.90;59.20
60848;DHT22;46681;47.696;9.140;2023-07-29T15:25:02;23.90;59.40
60848;DHT22;46681;47.696;9.140;2023-07-29T15:27:32;23.80;59.60
60848;DHT22;46681;47.696;9.140;2023-07-29T15:30:15;23.80;59.50
60848;DHT22;46681;47.696;9.140;2023-07-29T15:32:42;23.70;59.60
60848;DHT22;46681;47.696;9.140;2023-07-29T15:35:26;23.70;59.60
60848;DHT22;46681;47.696;9.140;2023-07-29T15:38:08;23.70;59.60
60848;DHT22;46681;47.696;9.140;2023-07-29T15:40:40;23.70;59.70
60848;DHT22;46681;47.696;9.140;2023-07-29T15:43:08;23.70;59.80
60848;DHT22;46681;47.696;9.140;2023-07-29T15:45:34;23.60;59.60
60848;DHT22;46681;47.696;9.140;2023-07-29T15:48:05;23.60;59.90
60848;DHT22;46681;47.696;9.140;2023-07-29T15:50:44;23.60;59.50
60848;DHT22;46681;47.696;9.140;2023-07-29T15:53:22;23.50;59.20
60848;DHT22;46681;47.696;9.140;2023-07-29T15:55:50;23.50;59.70
60848;DHT22;46681;47.696;9.140;2023-07-29T15:58:24;23.50;59.50
60848;DHT22;46681;47.696;9.140;2023-07-29T16:00:55;23.50;60.00
60848;DHT22;46681;47.696;9.140;2023-07-29T16:03:26;23.50;59.50
60848;DHT22;46681;47.696;9.140;2023-07-29T16:05:54;23.50;59.90
60848;DHT22;46681;47.696;9.140;2023-07-29T16:08:28;23.50;59.70
60848;DHT22;46681;47.696;9.140;2023-07-29T16:10:58;23.40;59.90
60848;DHT22;46681;47.696;9.140;2023-07-29T16:13:25;23.40;60.00
60848;DHT22;46681;47.696;9.140;2023-07-29T16:15:54;23.40;60.50
60848;DHT22;46681;47.696;9.140;2023-07-29T16:18:21;23.40;60.10
60848;DHT22;46681;47.696;9.140;2023-07-29T16:20:48;23.40;60.10
60848;DHT22;46681;47.696;9.140;2023-07-29T16:23:14;23.30;59.50
60848;DHT22;46681;47.696;9.140;2023-07-29T16:25:42;23.30;60.50
60848;DHT22;46681;47.696;9.140;2023-07-29T16:28:08;23.30;60.00
60848;DHT22;46681;47.696;9.140;2023-07-29T16:30:35;23.30;60.20
60848;DHT22;46681;47.696;9.140;2023-07-29T16:33:02;23.30;60.60
60848;DHT22;46681;47.696;9.140;2023-07-29T16:35:30;23.30;59.90
60848;DHT22;46681;47.696;9.140;2023-07-29T16:38:01;23.20;60.30
60848;DHT22;46681;47.696;9.140;2023-07-29T16:40:28;23.20;60.80
60848;DHT22;46681;47.696;9.140;2023-07-29T16:42:53;23.10;61.60
60848;DHT22;46681;47.696;9.140;2023-07-29T16:45:19;23.10;60.70
60848;DHT22;46681;47.696;9.140;2023-07-29T16:47:49;23.10;61.50
60848;DHT22;46681;47.696;9.140;2023-07-29T16:50:15;23.10;61.30
60848;DHT22;46681;47.696;9.140;2023-07-29T16:52:41;23.10;61.60
60848;DHT22;46681;47.696;9.140;2023-07-29T16:55:08;23.00;61.40
60848;DHT22;46681;47.696;9.140;2023-07-29T16:57:34;23.00;61.00
60848;DHT22;46681;47.696;9.140;2023-07-29T17:00:00;23.00;61.50
60848;DHT22;46681;47.696;9.140;2023-07-29T17:02:30;22.90;62.00
60848;DHT22;46681;47.696;9.140;2023-07-29T17:05:03;22.90;61.70
60848;DHT22;46681;47.696;9.140;2023-07-29T17:07:34;22.90;61.60
60848;DHT22;46681;47.696;9.140;2023-07-29T17:10:14;22.90;62.00
60848;DHT22;46681;47.696;9.140;2023-07-29T17:12:40;22.90;61.40
60848;DHT22;46681;47.696;9.140;2023-07-29T17:15:08;22.90;61.90
60848;DHT22;46681;47.696;9.140;2023-07-29T17:17:42;22.90;62.10
60848;DHT22;46681;47.696;9.140;2023-07-29T17:20:09;22.80;62.80
60848;DHT22;46681;47.696;9.140;2023-07-29T17:22:35;22.80;62.10
60848;DHT22;46681;47.696;9.140;2023-07-29T17:25:01;22.70;62.50
60848;DHT22;46681;47.696;9.140;2023-07-29T17:27:27;22.70;61.50
60848;DHT22;46681;47.696;9.140;2023-07-29T17:29:59;22.70;62.00
60848;DHT22;46681;47.696;9.140;2023-07-29T17:32:25;22.70;62.60
60848;DHT22;46681;47.696;9.140;2023-07-29T17:34:56;22.60;62.40
60848;DHT22;46681;47.696;9.140;2023-07-29T17:37:21;22.60;62.60
60848;DHT22;46681;47.696;9.140;2023-07-29T17:39:47;22.60;62.40
60848;DHT22;46681;47.696;9.140;2023-07-29T17:42:15;22.60;62.20
60848;DHT22;46681;47.696;9.140;2023-07-29T17:44:50;22.60;62.30
60848;DHT22;46681;47.696;9.140;2023-07-29T17:47:22;22.60;62.70
60848;DHT22;46681;47.696;9.140;2023-07-29T17:49:47;22.60;62.60
60848;DHT22;46681;47.696;9.140;2023-07-29T17:52:13;22.60;63.00
60848;DHT22;46681;47.696;9.140;2023-07-29T17:54:42;22.50;62.80
60848;DHT22;46681;47.696;9.140;2023-07-29T17:57:10;22.50;63.00
60848;DHT22;46681;47.696;9.140;2023-07-29T17:59:37;22.50;62.80
60848;DHT22;46681;47.696;9.140;2023-07-29T18:02:10;22.40;62.90
60848;DHT22;46681;47.696;9.140;2023-07-29T18:04:38;22.50;63.00
60848;DHT22;46681;47.696;9.140;2023-07-29T18:07:11;22.40;62.90
60848;DHT22;46681;47.696;9.140;2023-07-29T18:09:40;22.40;63.10
60848;DHT22;46681;47.696;9.140;2023-07-29T18:12:09;22.40;63.40
60848;DHT22;46681;47.696;9.140;2023-07-29T18:14:34;22.40;63.10
60848;DHT22;46681;47.696;9.140;2023-07-29T18:17:07;22.30;62.90
60848;DHT22;46681;47.696;9.140;2023-07-29T18:22:42;22.30;63.20
60848;DHT22;46681;47.696;9.140;2023-07-29T18:25:12;22.30;63.20
60848;DHT22;46681;47.696;9.140;2023-07-29T18:30:57;22.20;63.10
60848;DHT22;46681;47.696;9.140;2023-07-29T18:33:28;22.20;62.90
60848;DHT22;46681;47.696;9.140;2023-07-29T18:35:56;22.20;63.30
60848;DHT22;46681;47.696;9.140;2023-07-29T18:38:25;22.20;63.30
60848;DHT22;46681;47.696;9.140;2023-07-29T18:40:59;22.10;63.30
60848;DHT22;46681;47.696;9.140;2023-07-29T18:43:28;22.10;63.40
60848;DHT22;46681;47.696;9.140;2023-07-29T18:45:54;22.10;63.50
60848;DHT22;46681;47.696;9.140;2023-07-29T18:48:30;22.10;63.40
60848;DHT22;46681;47.696;9.140;2023-07-29T18:51:07;22.10;63.50
60848;DHT22;46681;47.696;9.140;2023-07-29T18:53:38;22.10;63.70
60848;DHT22;46681;47.696;9.140;2023-07-29T18:56:03;22.00;63.50
60848;DHT22;46681;47.696;9.140;2023-07-29T18:58:30;22.00;63.50
60848;DHT22;46681;47.696;9.140;2023-07-29T19:00:56;22.00;63.50
60848;DHT22;46681;47.696;9.140;2023-07-29T19:03:22;22.00;63.60
60848;DHT22;46681;47.696;9.140;2023-07-29T19:06:00;21.90;63.40
60848;DHT22;46681;47.696;9.140;2023-07-29T19:08:26;21.90;63.60
60848;DHT22;46681;47.696;9.140;2023-07-29T19:10:53;21.90;63.10
60848;DHT22;46681;47.696;9.140;2023-07-29T19:13:29;21.90;63.80